Latest Coastal Weather Observations for Wadeye (Port Keats)

IDD60701

Issued at 4:01 am CST Tuesday 28 April 2015 (issued every 10 minutes, with the page automatically refreshed every 10 minutes)

About coastal observations | Map of coastal stations | Coastal observations for NT | Marine services | Other Formats
Station Details ID: 014948 Name: PORT KEATS AIRPORT Lat: -14.25 Lon: 129.53 Height: 28.0 m
Data from the previous 72 hours. | See also: Recent months at Wadeye (Port Keats)
Date/Time
CST
Temp

°C
Wind Pressure Rain
since 9am
mm
Weather Cloud Vis
km
Sea
Height
m
Swell
Dir
 
Speed
knots
Gust
knots
hPa Trend Height
m
Period
s
Dir
28/04:00am 23.4 SE 9 12 1012.6 - 0.0 - - - - - - -
28/03:30am 20.4 SSE 6 7 1012.6 - 0.0 - - - - - - -
28/03:00am 20.5 SSE 6 7 1012.7 - 0.0 - - - - - - -
28/02:30am 17.8 S 4 6 1013.0 - 0.0 - - - - - - -
28/02:00am 18.4 SSE 5 5 1013.2 - 0.0 - - - - - - -
28/01:30am 18.6 S 3 4 1013.3 - 0.0 - - - - - - -
28/01:00am 18.7 S 4 5 1013.6 - 0.0 - - - - - - -
28/12:30am 18.6 S 3 5 1014.0 - 0.0 - - - - - - -
28/12:00am 19.3 S 4 6 1014.3 - 0.0 - - - - - - -
 
Date/Time
CST
Temp

°C
Wind Pressure Rain
since 9am
mm
Weather Cloud Vis
km
Sea
Height
m
Swell
Dir
 
Speed
knots
Gust
knots
hPa Trend Height
m
Period
s
Dir
27/11:30pm 20.6 SSE 4 5 1014.6 - 0.0 - - - - - - -
27/11:00pm 20.8 S 5 6 1014.9 - 0.0 - - - - - - -
27/10:30pm 22.2 S 5 6 1015.0 - 0.0 - - - - - - -
27/10:00pm 21.5 S 4 6 1015.1 - 0.0 - - - - - - -
27/09:30pm 20.6 S 4 6 1014.9 - 0.0 - - - - - - -
27/09:00pm 22.4 SSE 5 6 1014.7 - 0.0 - - - - - - -
27/08:30pm 23.5 SSE 6 8 1014.5 - 0.0 - - - - - - -
27/08:00pm 23.2 ENE 5 7 1014.3 - 0.0 - - - - - - -
27/07:30pm 21.8 S 4 5 1013.7 - 0.0 - - - - - - -
27/07:00pm 23.4 SSW 4 5 1013.4 - 0.0 - - - - - - -
27/06:30pm 25.2 SSW 4 6 1012.9 - 0.0 - - - - - - -
27/06:00pm 27.8 SSW 4 6 1012.5 - 0.0 - - - - - - -
27/05:30pm 29.9 SSW 3 4 1012.0 - 0.0 - - - - - - -
27/05:00pm 30.9 SSE 6 10 1011.6 - 0.0 - - - - - - -
27/04:30pm 31.2 S 7 10 1011.4 - 0.0 - - - - - - -
27/04:00pm 32.0 SSE 8 14 1011.4 - 0.0 - - - - - - -
27/03:30pm 31.5 SE 8 12 1011.5 - 0.0 - - - - - - -
27/03:00pm 32.1 SE 7 13 1011.6 - 0.0 - - - - - - -
27/02:30pm 31.3 SSE 8 13 1011.9 - 0.0 - - - - - - -
27/02:00pm 32.7 SE 7 13 1012.2 - 0.0 - - - - - - -
27/01:30pm 30.9 SSE 8 11 1012.8 - 0.0 - - - - - - -
27/01:00pm 30.8 SE 9 15 1013.3 - 0.0 - - - - - - -
27/12:30pm 30.5 ESE 10 15 1013.8 - 0.0 - - - - - - -
27/12:00pm 29.9 SE 11 16 1014.1 - 0.0 - - - - - - -
27/11:30am 29.4 SE 11 16 1014.6 - 0.0 - - - - - - -
27/11:00am 28.6 SE 10 15 1015.0 - 0.0 - - - - - - -
27/10:30am 27.5 ESE 11 16 1015.2 - 0.0 - - - - - - -
27/10:00am 26.4 ESE 11 19 1015.3 - 0.0 - - - - - - -
27/09:30am 25.6 ESE 10 15 1015.2 - 0.0 - - - - - - -
27/09:00am 24.4 SE 9 13 1015.2 - 0.0 - - - - - - -
27/08:30am 23.2 SE 8 11 1014.9 - 0.0 - - - - - - -
27/08:00am 22.2 SE 7 9 1014.7 - 0.0 - - - - - - -
27/07:30am 21.2 SE 8 10 1014.3 - 0.0 - - - - - - -
27/07:00am 20.9 SE 8 11 1014.0 - 0.0 - - - - - - -
27/06:30am 21.2 SE 9 11 1013.5 - 0.0 - - - - - - -
27/06:00am 21.9 SE 9 13 1013.2 - 0.0 - - - - - - -
27/05:30am 22.3 SE 10 14 1013.0 - 0.0 - - - - - - -
27/05:00am 22.4 SSE 9 13 1013.0 - 0.0 - - - - - - -
27/04:30am 21.8 SSE 8 11 1013.0 - 0.0 - - - - - - -
27/04:00am 21.2 SSE 7 9 1013.1 - 0.0 - - - - - - -
27/03:30am 21.3 S 7 10 1013.0 - 0.0 - - - - - - -
27/03:00am 21.9 SSE 7 9 1013.0 - 0.0 - - - - - - -
27/02:30am 21.6 SSE 6 8 1013.0 - 0.0 - - - - - - -
27/02:00am 21.2 SSE 6 7 1013.2 - 0.0 - - - - - - -
27/01:30am 21.2 SSE 6 9 1013.4 - 0.0 - - - - - - -
27/01:00am 20.3 SSE 5 6 1013.8 - 0.0 - - - - - - -
27/12:30am 19.9 S 4 6 1014.1 - 0.0 - - - - - - -
27/12:00am 21.3 S 5 7 1014.1 - 0.0 - - - - - - -
 
Date/Time
CST
Temp

°C
Wind Pressure Rain
since 9am
mm
Weather Cloud Vis
km
Sea
Height
m
Swell
Dir
 
Speed
knots
Gust
knots
hPa Trend Height
m
Period
s
Dir
26/11:30pm 21.8 S 5 6 1014.1 - 0.0 - - - - - - -
26/11:00pm 21.5 S 5 6 1014.2 - 0.0 - - - - - - -
26/10:30pm 21.6 S 4 6 1014.3 - 0.0 - - - - - - -
26/10:00pm 22.1 S 5 7 1014.3 - 0.0 - - - - - - -
26/09:30pm 21.5 SSE 5 6 1014.3 - 0.0 - - - - - - -
26/09:00pm 21.6 SSE 5 6 1014.0 - 0.0 - - - - - - -
26/08:30pm 22.1 SSE 4 5 1013.7 - 0.0 - - - - - - -
26/08:00pm 23.2 S 4 5 1013.2 - 0.0 - - - - - - -
26/07:30pm 23.9 S 3 4 1012.7 - 0.0 - - - - - - -
26/07:00pm 25.6 S 4 5 1012.3 - 0.0 - - - - - - -
26/06:30pm 27.2 S 4 4 1012.0 - 0.0 - - - - - - -
26/06:00pm 30.0 S 4 7 1011.7 - 0.0 - - - - - - -
26/05:30pm 31.3 S 5 7 1011.4 - 0.0 - - - - - - -
26/05:00pm 32.3 S 6 9 1011.1 - 0.0 - - - - - - -
26/04:30pm 32.2 S 7 11 1011.0 - 0.0 - - - - - - -
26/04:00pm 32.8 SE 8 11 1010.9 - 0.0 - - - - - - -
26/03:30pm 33.0 SE 9 12 1010.9 - 0.0 - - - - - - -
26/03:00pm 32.6 SE 9 14 1011.0 - 0.0 - - - - - - -
26/02:30pm 32.4 SSE 9 13 1011.3 - 0.0 - - - - - - -
26/02:00pm 32.3 SE 10 14 1011.7 - 0.0 - - - - - - -
26/01:30pm 32.4 SSE 9 13 1012.1 - 0.0 - - - - - - -
26/01:00pm 31.9 ESE 11 18 1012.5 - 0.0 - - - - - - -
26/12:30pm 31.1 ESE 12 19 1013.0 - 0.0 - - - - - - -
26/12:00pm 31.1 ESE 11 15 1013.4 - 0.0 - - - - - - -
26/11:30am 30.1 ESE 13 19 1013.9 - 0.0 - - - - - - -
26/11:00am 29.4 ESE 13 19 1014.2 - 0.0 - - - - - - -
26/10:30am 28.7 ESE 13 19 1014.5 - 0.0 - - - - - - -
26/10:00am 27.4 ESE 12 18 1014.3 - 0.0 - - - - - - -
26/09:30am 27.1 ESE 11 15 1014.2 - 0.0 - - - - - - -
26/09:00am 26.2 ESE 10 15 1014.0 - 0.0 - - - - - - -
26/08:30am 25.5 ESE 9 12 1013.7 - 0.0 - - - - - - -
26/08:00am 24.5 ESE 10 15 1013.4 - 0.0 - - - - - - -
26/07:30am 24.1 SE 12 16 1012.7 - 0.0 - - - - - - -
26/07:00am 23.9 ESE 9 13 1012.5 - 0.0 - - - - - - -
26/06:30am 24.1 ESE 9 13 1012.2 - 0.0 - - - - - - -
26/06:00am 24.7 ESE 10 15 1012.0 - 0.0 - - - - - - -
26/05:30am 24.9 ESE 10 13 1011.9 - 0.0 - - - - - - -
26/05:00am 25.2 ESE 10 14 1011.9 - 0.0 - - - - - - -
26/04:30am 25.3 SE 9 13 1011.8 - 0.0 - - - - - - -
26/04:00am 25.7 SE 10 14 1011.7 - 0.0 - - - - - - -
26/03:30am 26.0 SE 10 12 1011.5 - 0.0 - - - - - - -
26/03:00am 23.9 SSE 7 10 1011.3 - 0.0 - - - - - - -
26/02:30am 22.8 SE 7 8 1011.2 - 0.0 - - - - - - -
26/02:00am 25.0 SE 7 9 1011.3 - 0.0 - - - - - - -
26/01:57am 24.7 SE 7 9 1011.3 - 0.0 - - - - - - -
26/01:30am 19.4 SSE 5 7 1011.6 - 0.0 - - - - - - -
26/01:00am 19.1 SSE 4 5 1011.8 - 0.0 - - - - - - -
26/12:30am 19.4 SE 4 6 1011.8 - 0.0 - - - - - - -
26/12:00am 19.4 SSE 4 4 1011.9 - 0.0 - - - - - - -
 
Date/Time
CST
Temp

°C
Wind Pressure Rain
since 9am
mm
Weather Cloud Vis
km
Sea
Height
m
Swell
Dir
 
Speed
knots
Gust
knots
hPa Trend Height
m
Period
s
Dir
25/11:30pm 20.0 SSE 1 4 1011.9 - 0.0 - - - - - - -
25/11:00pm 20.6 CALM 0 0 1012.1 - 0.0 - - - - - - -
25/10:30pm 21.8 CALM 0 0 1012.2 - 0.0 - - - - - - -
25/10:00pm 21.4 CALM 0 0 1012.2 - 0.0 - - - - - - -
25/09:30pm 21.9 SSE 1 4 1012.1 - 0.0 - - - - - - -
25/09:00pm 22.6 SSE 3 4 1011.9 - 0.0 - - - - - - -
25/08:30pm 24.1 SSE 3 5 1011.6 - 0.0 - - - - - - -
25/08:00pm 24.0 WSW 2 4 1011.2 - 0.0 - - - - - - -
25/07:30pm 25.1 S 2 6 1010.7 - 0.0 - - - - - - -
25/07:00pm 27.4 CALM 0 0 1010.1 - 0.0 - - - - - - -
25/06:30pm 30.1 CALM 0 0 1009.7 - 0.0 - - - - - - -
25/06:00pm 33.1 ESE 4 5 1009.2 - 0.0 - - - - - - -
25/05:30pm 33.9 SE 6 7 1008.8 - 0.0 - - - - - - -
25/05:00pm 34.5 SE 7 9 1008.5 - 0.0 - - - - - - -
25/04:30pm 34.6 SE 7 9 1008.3 - 0.0 - - - - - - -
25/04:00pm 34.6 ESE 7 12 1008.2 - 0.0 - - - - - - -
25/03:30pm 34.9 ESE 9 15 1008.4 - 0.0 - - - - - - -
25/03:00pm 34.6 SE 8 12 1008.7 - 0.0 - - - - - - -
25/02:30pm 35.0 SE 10 13 1009.0 - 0.0 - - - - - - -
25/02:00pm 35.2 SE 10 15 1009.2 - 0.0 - - - - - - -
25/01:30pm 35.0 SE 11 16 1009.5 - 0.0 - - - - - - -
25/01:00pm 34.8 ESE 10 13 1009.8 - 0.0 - - - - - - -
25/12:30pm 33.9 SE 12 17 1010.2 - 0.0 - - - - - - -
25/12:00pm 33.6 SE 10 14 1010.7 - 0.0 - - - - - - -
25/11:30am 32.6 SE 10 13 1011.2 - 0.0 - - - - - - -
25/11:00am 32.6 ESE 8 11 1011.5 - 0.0 - - - - - - -
25/10:30am 31.7 ESE 9 14 1011.5 - 0.0 - - - - - - -
25/10:00am 30.9 ESE 9 13 1011.5 - 0.0 - - - - - - -
25/09:30am 29.6 SE 8 12 1011.2 - 0.0 - - - - - - -
25/09:00am 28.4 SE 10 13 1011.2 - 0.0 - - - - - - -
25/08:30am 25.8 SSE 4 6 1011.1 - 0.0 - - - - - - -
25/08:00am 23.3 S 5 7 1010.8 - 0.0 - - - - - - -
25/07:30am 21.4 SSE 5 6 1010.3 - 0.0 - - - - - - -
25/07:00am 21.4 SSE 5 6 1010.0 - 0.0 - - - - - - -
25/06:30am 21.4 SSE 6 7 1009.7 - 0.0 - - - - - - -
25/06:00am 20.5 SSE 5 6 1009.5 - 0.0 - - - - - - -
25/05:30am 20.7 SE 4 5 1009.5 - 0.0 - - - - - - -
25/05:00am 20.8 SSE 1 4 1009.6 - 0.0 - - - - - - -
25/04:30am 20.3 CALM 0 0 1009.6 - 0.0 - - - - - - -

Other Formats:

Comma delimited format used in spreadsheet applications
http://www.bom.gov.au/fwo/IDD60701/IDD60701.95111.axf

JavaScript Object Notation format (JSON) in row-major order
http://www.bom.gov.au/fwo/IDD60701/IDD60701.95111.json